Airfield :
LOGIN :

Register | Disclaimer

   EN    FR    IT 

 










Legend :    VFR   Marginal VFR   IFR   Intensive IFR   Very Intensive IFR
Visi :
Ceiling :
>= 8 km
>= 3000ft
5 to 8 km
1000 to 3000 ft
1500m to 5 km
500 to 1000 ft
800 to 1500m
200 to 500 ft
< 800m
< 200 ft
Symbols :   Thunderstorms  Fog  Heavy snow  Heavy precipitations  Wind > 20 kt
SIGMETs :     Misc.  Thunderstorms  Icing  Turbulence  Mountain Waves  Volcanic Ashes






- Airport Elevation : 1768 ft


LEHC - Huesca Pirineos

CURRENT METAR :
  • 130500Z AUTO 27010KT 5000 -RA BR SCT002 SCT017 BKN058 09/09 Q1002

EXPIRED METARs :
  • 130430Z AUTO 27010KT 9999 -SHRA FEW018 BKN050 BKN060 09/09 Q1002
  • 130400Z AUTO 26009KT 220V300 9999 -SHRA FEW004 BKN017 09/09 Q1002
  • 130330Z AUTO 27007KT 230V300 7000 0400NW R12R/0375N -SHRA BCFG BKN002 BKN020 07/07 Q1003
  • 130300Z AUTO 28006KT 7000 0500NW R12R/0500D -RA BCFG BKN002 BKN060 07/07 Q1003
  • 130230Z AUTO 29004KT 260V320 0450 0300NW R30L/1100U R12R/0300N -RA FG VV002 06/06 Q1004

TAF TAF LEHC
Valid from the 13 at 03:00 until the 14 at 03:00 UTC


130200Z 1303/1403 28020KT 9999 SCT060 TX14/1313Z TN08/1306Z
TEMPO 1303/1309 28020G30KT
TEMPO 1309/1315 28030G43KT
BECMG 1319/1321 29014KT



MET'MAP, your aeronautical weather chart ! - Copyright ORBIFLY December 2007 - Disclaimer

ORBIFLY MET'MAP TEAM :

Programming & Development : Alexandra Zaïnal
Concept & original design : Baudouin d'Aumeries
Assistance for programming : Marc-Olivier Méhu
Technical & hardware support : Manuel Goepfert

Contact : metmap@orbifly.com




SOURCES & CREDITS :

   NOAA